Time;durP1;ratioP1;P1;durP2;ratioP2;P2;SDS_P1;SDS_P2;PMS_P1;PMS_P2;Temp;Humidity;BMP_temperature;BMP_pressure;BME280_temperature;BME280_humidity;BME280_pressure;Samples;Min_cycle;Max_cycle;Signal;HPM_P1;HPM_P2
2022/05/21 00:01:49;;;;;;;86.07;52.45;;;19.30;69.50;;;;;;4917108;28;90811;-38
2022/05/21 00:04:15;;;;;;;86.05;52.60;;;19.30;70.10;;;;;;4927321;28;91270;-37
2022/05/21 00:06:41;;;;;;;86.50;52.67;;;19.30;70.20;;;;;;4922771;28;90356;-38
2022/05/21 00:09:07;;;;;;;86.88;52.55;;;19.20;69.60;;;;;;4919683;28;92548;-37
2022/05/21 00:11:33;;;;;;;85.25;52.50;;;19.30;70.70;;;;;;4923939;28;89815;-39
2022/05/21 00:13:59;;;;;;;86.80;52.83;;;19.20;70.10;;;;;;4929546;28;89985;-38
2022/05/21 00:16:24;;;;;;;87.15;52.45;;;19.20;70.10;;;;;;4917830;28;89584;-38
2022/05/21 00:18:50;;;;;;;85.53;52.25;;;19.20;70.10;;;;;;4929956;28;89307;-38
2022/05/21 00:21:16;;;;;;;86.35;52.72;;;19.20;69.40;;;;;;4920488;28;89645;-37
2022/05/21 00:23:42;;;;;;;85.43;52.40;;;19.10;70.10;;;;;;4929380;28;90959;-38
2022/05/21 00:26:10;;;;;;;84.45;52.28;;;19.10;69.60;;;;;;4929876;28;91043;-39
2022/05/21 00:28:39;;;;;;;85.25;52.30;;;19.10;69.90;;;;;;4922732;28;90986;-37
2022/05/21 00:31:06;;;;;;;84.13;52.20;;;19.10;69.80;;;;;;4919826;28;89835;-37
2022/05/21 00:33:32;;;;;;;85.53;52.33;;;19.10;70.00;;;;;;4924097;28;91304;-38
2022/05/21 00:35:58;;;;;;;84.35;52.33;;;19.10;70.30;;;;;;4921313;28;95691;-39
2022/05/21 00:38:25;;;;;;;85.43;52.35;;;19.10;70.00;;;;;;4924531;28;92623;-38
2022/05/21 00:40:52;;;;;;;85.10;52.25;;;19.10;69.60;;;;;;4916114;28;90354;-38
2022/05/21 00:43:36;;;;;;;84.30;52.30;;;19.10;70.00;;;;;;4924286;28;88838;-36
2022/05/21 00:46:04;;;;;;;85.07;52.33;;;19.10;69.80;;;;;;4925207;28;90248;-38
2022/05/21 00:48:29;;;;;;;84.57;52.30;;;19.00;69.60;;;;;;4923265;28;89977;-37
2022/05/21 00:50:55;;;;;;;84.15;52.20;;;19.00;69.70;;;;;;4917832;28;91002;-38
2022/05/21 00:53:21;;;;;;;85.72;52.33;;;19.00;69.40;;;;;;4918998;28;90152;-37
2022/05/21 00:55:49;;;;;;;86.03;52.25;;;19.00;69.50;;;;;;4917572;28;90060;-39
2022/05/21 01:01:02;;;;;;;83.85;52.08;;;19.00;69.40;;;;;;4925585;28;90256;-37
2022/05/21 01:03:29;;;;;;;85.53;52.15;;;19.00;69.50;;;;;;4923477;28;90692;-39
2022/05/21 01:05:58;;;;;;;83.55;52.08;;;19.00;70.10;;;;;;4923892;28;93469;-37
2022/05/21 01:08:24;;;;;;;84.38;52.15;;;19.00;69.90;;;;;;4926571;28;90692;-37
2022/05/21 01:10:55;;;;;;;84.40;51.95;;;19.00;69.60;;;;;;4926013;28;94749;-37
2022/05/21 01:13:25;;;;;;;84.32;51.95;;;18.90;69.60;;;;;;4924721;28;90141;-40
2022/05/21 01:15:53;;;;;;;84.10;52.05;;;18.90;70.20;;;;;;4922012;28;92900;-38
2022/05/21 01:18:20;;;;;;;84.15;51.80;;;18.90;69.40;;;;;;4922914;28;91432;-37
2022/05/21 01:20:49;;;;;;;84.57;52.10;;;18.90;69.80;;;;;;4916541;28;91522;-37
2022/05/21 01:23:16;;;;;;;84.47;52.28;;;18.90;70.10;;;;;;4921331;28;90026;-38
2022/05/21 01:25:44;;;;;;;84.45;52.10;;;18.80;69.10;;;;;;4922438;28;92605;-37
2022/05/21 01:28:12;;;;;;;85.60;52.17;;;18.80;69.90;;;;;;4925397;28;90293;-40
2022/05/21 01:30:44;;;;;;;83.40;51.80;;;18.90;69.70;;;;;;4918898;28;90148;-38
2022/05/21 01:33:14;;;;;;;85.00;52.53;;;18.80;69.30;;;;;;4924419;28;89179;-38
2022/05/21 01:35:42;;;;;;;83.93;52.03;;;18.80;69.20;;;;;;4921273;28;90666;-37
2022/05/21 01:38:09;;;;;;;84.20;52.25;;;18.80;69.50;;;;;;4922461;28;90008;-36
2022/05/21 01:40:36;;;;;;;83.88;51.88;;;18.80;69.60;;;;;;4921202;28;91118;-37
2022/05/21 01:45:48;;;;;;;83.72;51.95;;;18.80;69.60;;;;;;4911454;28;90600;-40
2022/05/21 01:48:18;;;;;;;84.25;52.05;;;18.80;68.90;;;;;;4926559;28;89715;-37
2022/05/21 01:50:45;;;;;;;85.10;52.00;;;18.80;69.20;;;;;;4920017;28;91488;-37
2022/05/21 01:53:11;;;;;;;84.07;52.05;;;18.80;68.70;;;;;;4916177;28;92378;-38
2022/05/21 01:55:38;;;;;;;84.78;52.08;;;18.70;69.70;;;;;;4931584;28;90793;-37
2022/05/21 01:58:04;;;;;;;84.50;51.95;;;18.70;69.90;;;;;;4929562;28;88858;-38
2022/05/21 02:00:30;;;;;;;83.85;51.85;;;18.70;69.60;;;;;;4924173;28;92443;-38
2022/05/21 02:02:55;;;;;;;83.50;51.72;;;18.70;69.60;;;;;;4931144;28;90043;-38
2022/05/21 02:05:21;;;;;;;84.68;52.28;;;18.70;69.50;;;;;;4915352;28;92033;-38
2022/05/21 02:07:47;;;;;;;83.82;51.67;;;18.70;69.90;;;;;;4924062;28;90902;-38
2022/05/21 02:10:13;;;;;;;84.65;51.88;;;18.70;69.40;;;;;;4924535;28;90177;-38
2022/05/21 02:12:40;;;;;;;84.45;51.88;;;18.70;69.60;;;;;;4926572;28;96499;-39
2022/05/21 02:15:06;;;;;;;83.68;51.97;;;18.70;69.40;;;;;;4924311;28;91975;-38
2022/05/21 02:17:32;;;;;;;85.50;51.95;;;18.70;69.60;;;;;;4922897;28;90683;-36
2022/05/21 02:19:58;;;;;;;83.68;51.90;;;18.70;69.60;;;;;;4921590;28;90182;-37
2022/05/21 02:22:23;;;;;;;85.82;51.92;;;18.70;69.70;;;;;;4924057;28;89642;-37
2022/05/21 02:24:49;;;;;;;83.88;52.35;;;18.70;69.60;;;;;;4928329;28;90532;-38
2022/05/21 02:27:15;;;;;;;83.75;51.95;;;18.70;69.60;;;;;;4924609;28;90244;-37
2022/05/21 02:29:42;;;;;;;83.60;51.97;;;18.70;69.80;;;;;;4926907;28;90735;-38
2022/05/21 02:32:10;;;;;;;85.05;52.35;;;18.70;69.60;;;;;;4935365;28;90269;-40
2022/05/21 02:34:36;;;;;;;83.70;52.00;;;18.70;69.60;;;;;;4929600;28;94381;-37
2022/05/21 02:39:46;;;;;;;84.70;51.80;;;18.70;69.90;;;;;;4920500;28;89837;-38
2022/05/21 02:44:56;;;;;;;83.13;51.65;;;18.70;69.30;;;;;;4923165;28;91818;-38
2022/05/21 02:47:23;;;;;;;85.35;52.13;;;18.60;69.30;;;;;;4927271;28;90162;-37
2022/05/21 02:49:48;;;;;;;85.22;51.75;;;18.60;69.30;;;;;;4929775;28;89940;-38
2022/05/21 02:52:15;;;;;;;85.43;52.13;;;18.60;69.60;;;;;;4916890;28;89976;-39
2022/05/21 02:54:41;;;;;;;85.07;52.00;;;18.60;69.90;;;;;;4926793;28;91848;-38
2022/05/21 02:57:09;;;;;;;84.75;52.00;;;18.60;69.50;;;;;;4918573;28;95190;-39
2022/05/21 02:59:35;;;;;;;84.13;51.97;;;18.60;69.40;;;;;;4925903;28;101901;-37
2022/05/21 03:02:01;;;;;;;84.15;51.92;;;18.60;69.60;;;;;;4928934;28;96167;-39
2022/05/21 03:04:27;;;;;;;84.20;52.17;;;18.60;70.10;;;;;;4923672;28;91263;-40
2022/05/21 03:06:53;;;;;;;85.00;52.08;;;18.60;69.70;;;;;;4929943;28;89809;-40
2022/05/21 03:12:04;;;;;;;84.13;51.60;;;18.50;69.40;;;;;;4930901;28;89146;-38
2022/05/21 03:14:29;;;;;;;83.50;52.00;;;18.50;69.30;;;;;;4926147;28;92649;-38
2022/05/21 03:16:59;;;;;;;83.90;52.25;;;18.60;70.10;;;;;;4921509;28;89808;-39
2022/05/21 03:19:29;;;;;;;84.22;51.70;;;18.60;69.50;;;;;;4928561;28;92404;-37
2022/05/21 03:21:55;;;;;;;84.57;51.63;;;18.60;69.30;;;;;;4920776;28;90022;-38
2022/05/21 03:24:21;;;;;;;84.70;52.00;;;18.60;69.20;;;;;;4922518;28;89871;-37
2022/05/21 03:26:46;;;;;;;83.15;51.78;;;18.60;69.20;;;;;;4929258;28;89956;-38
2022/05/21 03:29:12;;;;;;;83.88;51.72;;;18.50;69.20;;;;;;4930066;28;91669;-36
2022/05/21 03:31:38;;;;;;;84.00;51.72;;;18.50;69.40;;;;;;4928807;28;90142;-37
2022/05/21 03:34:04;;;;;;;83.22;51.85;;;18.50;69.30;;;;;;4932322;28;90267;-40
2022/05/21 03:36:30;;;;;;;83.25;51.80;;;18.50;69.50;;;;;;4924178;28;89294;-38
2022/05/21 03:38:57;;;;;;;83.28;51.75;;;18.50;69.50;;;;;;4924957;28;89900;-39
2022/05/21 03:41:23;;;;;;;84.13;51.95;;;18.50;69.30;;;;;;4922679;28;91166;-38
2022/05/21 03:43:49;;;;;;;83.35;51.97;;;18.50;69.50;;;;;;4928949;28;91824;-38
2022/05/21 03:46:14;;;;;;;82.97;51.67;;;18.50;69.50;;;;;;4924326;28;91895;-39
2022/05/21 03:48:40;;;;;;;83.93;52.00;;;18.50;69.40;;;;;;4930870;28;90898;-38
2022/05/21 03:51:05;;;;;;;83.47;51.90;;;18.50;69.80;;;;;;4919282;28;90053;-36
2022/05/21 03:53:31;;;;;;;83.20;51.70;;;18.50;69.00;;;;;;4921315;28;90443;-38
2022/05/21 03:55:57;;;;;;;83.35;51.85;;;18.50;69.00;;;;;;4924981;28;92298;-39
2022/05/21 03:58:23;;;;;;;86.13;52.05;;;18.50;69.10;;;;;;4925125;28;89885;-37
2022/05/21 04:00:50;;;;;;;84.32;51.97;;;18.50;69.20;;;;;;4921371;28;90094;-38
2022/05/21 04:03:16;;;;;;;83.03;51.75;;;18.50;68.40;;;;;;4921933;28;91556;-38
2022/05/21 04:05:42;;;;;;;84.13;51.75;;;18.50;68.80;;;;;;4920804;28;90474;-38
2022/05/21 04:08:08;;;;;;;83.70;52.20;;;18.50;69.00;;;;;;4914734;28;94687;-38
2022/05/21 04:10:33;;;;;;;82.65;51.63;;;18.60;69.60;;;;;;4918178;28;89890;-40
2022/05/21 04:12:59;;;;;;;84.10;51.95;;;18.60;69.30;;;;;;4920012;28;90216;-37
2022/05/21 04:15:25;;;;;;;82.90;51.92;;;18.60;69.50;;;;;;4927464;28;92715;-37
2022/05/21 04:17:52;;;;;;;84.07;52.03;;;18.60;68.80;;;;;;4907246;28;91228;-40
2022/05/21 04:20:19;;;;;;;89.90;52.38;;;18.60;68.70;;;;;;4914904;28;90867;-38
2022/05/21 04:22:45;;;;;;;88.75;52.17;;;18.60;69.40;;;;;;4913378;28;90492;-38
2022/05/21 04:25:11;;;;;;;87.72;51.85;;;18.70;69.00;;;;;;4900414;28;91978;-38
2022/05/21 04:27:39;;;;;;;88.18;52.22;;;18.70;69.00;;;;;;4914197;28;90458;-38
2022/05/21 04:30:08;;;;;;;87.55;52.17;;;18.70;68.70;;;;;;4924769;28;89962;-37
2022/05/21 04:32:33;;;;;;;88.32;52.08;;;18.70;68.20;;;;;;4917701;28;91184;-38
2022/05/21 04:34:59;;;;;;;85.47;51.95;;;18.70;67.90;;;;;;4901572;28;90463;-38
2022/05/21 04:37:25;;;;;;;87.40;52.45;;;18.80;68.90;;;;;;4911841;28;90753;-41
2022/05/21 04:39:50;;;;;;;86.93;52.53;;;18.70;68.70;;;;;;4916317;28;94273;-39
2022/05/21 04:42:16;;;;;;;86.85;52.97;;;18.80;69.20;;;;;;4921105;28;89980;-38
2022/05/21 04:44:42;;;;;;;88.93;52.85;;;18.80;69.00;;;;;;4928294;28;92552;-38
2022/05/21 04:47:07;;;;;;;92.05;52.83;;;18.90;69.00;;;;;;4924346;28;89945;-38
2022/05/21 04:49:34;;;;;;;88.93;52.58;;;18.90;69.00;;;;;;4918963;28;91448;-37
2022/05/21 04:52:02;;;;;;;87.00;52.75;;;18.90;68.70;;;;;;4911822;28;95870;-39
2022/05/21 04:54:28;;;;;;;88.57;52.95;;;18.90;68.40;;;;;;4924877;28;92358;-43
2022/05/21 04:56:53;;;;;;;88.93;52.65;;;18.90;68.10;;;;;;4922751;28;92000;-38
2022/05/21 04:59:19;;;;;;;89.45;52.78;;;19.00;68.20;;;;;;4924853;28;90005;-37
2022/05/21 05:01:44;;;;;;;89.10;52.72;;;19.00;67.80;;;;;;4921711;28;89852;-38
2022/05/21 05:04:11;;;;;;;87.47;52.75;;;19.00;67.90;;;;;;4927127;28;92606;-37
2022/05/21 05:06:38;;;;;;;88.60;52.47;;;19.10;67.70;;;;;;4928801;28;90361;-39
2022/05/21 05:09:08;;;;;;;88.90;52.47;;;19.10;67.50;;;;;;4915999;28;90187;-39
2022/05/21 05:11:34;;;;;;;86.88;52.35;;;19.10;67.60;;;;;;4917925;28;91256;-38
2022/05/21 05:14:00;;;;;;;86.68;52.47;;;19.10;67.40;;;;;;4923894;28;90312;-37
2022/05/21 05:16:25;;;;;;;87.72;52.50;;;19.10;67.50;;;;;;4917895;28;90334;-37
2022/05/21 05:18:51;;;;;;;89.45;52.72;;;19.10;67.30;;;;;;4917929;28;92182;-38
2022/05/21 05:21:17;;;;;;;89.95;52.60;;;19.20;67.40;;;;;;4924480;28;93122;-38
2022/05/21 05:23:42;;;;;;;86.70;52.47;;;19.20;67.40;;;;;;4917854;28;90676;-39
2022/05/21 05:26:08;;;;;;;86.57;52.53;;;19.20;67.10;;;;;;4930227;28;94809;-41
2022/05/21 05:28:34;;;;;;;86.80;52.30;;;19.20;67.20;;;;;;4931433;28;89990;-38
2022/05/21 05:30:59;;;;;;;86.53;52.58;;;19.20;66.80;;;;;;4924951;28;90812;-39
2022/05/21 05:33:26;;;;;;;87.28;52.50;;;19.20;66.80;;;;;;4927533;28;90394;-37
2022/05/21 05:35:52;;;;;;;86.75;52.38;;;19.20;66.70;;;;;;4927020;28;89880;-37
2022/05/21 05:38:19;;;;;;;88.35;52.55;;;19.30;66.30;;;;;;4928895;28;89500;-36
2022/05/21 05:40:46;;;;;;;86.28;52.60;;;19.30;66.50;;;;;;4925258;28;91156;-41
2022/05/21 05:43:15;;;;;;;87.78;52.92;;;19.30;66.20;;;;;;4906093;28;91343;-38
2022/05/21 05:45:40;;;;;;;87.20;52.58;;;19.40;66.30;;;;;;4887109;28;91929;-38
2022/05/21 05:48:06;;;;;;;87.72;52.83;;;19.40;66.20;;;;;;4890257;28;90656;-38
2022/05/21 05:50:32;;;;;;;86.68;52.63;;;19.50;65.40;;;;;;4883478;28;91837;-36
2022/05/21 05:53:03;;;;;;;86.47;52.38;;;19.60;65.90;;;;;;4917593;28;90526;-39
2022/05/21 05:55:30;;;;;;;87.18;52.83;;;19.60;65.40;;;;;;4911547;28;91330;-36
2022/05/21 05:57:56;;;;;;;86.75;52.45;;;19.60;65.30;;;;;;4924029;28;90729;-37
2022/05/21 06:00:22;;;;;;;89.32;52.70;;;19.60;66.50;;;;;;4930281;28;90226;-39
2022/05/21 06:03:01;;;;;;;88.72;52.95;;;19.60;65.00;;;;;;4923137;28;89275;-38
2022/05/21 06:05:30;;;;;;;87.95;52.72;;;19.60;65.60;;;;;;4927234;28;89981;-38
2022/05/21 06:08:02;;;;;;;86.72;52.90;;;19.60;65.60;;;;;;4922742;28;90639;-37
2022/05/21 06:10:38;;;;;;;87.88;52.72;;;19.60;65.50;;;;;;4921084;28;92084;-37
2022/05/21 06:13:05;;;;;;;89.07;52.80;;;19.60;65.00;;;;;;4925607;28;91361;-38
2022/05/21 06:15:32;;;;;;;87.93;52.97;;;19.70;64.80;;;;;;4933208;28;89883;-38
2022/05/21 06:17:57;;;;;;;90.05;52.90;;;19.70;64.50;;;;;;4919221;28;89949;-38
2022/05/21 06:20:26;;;;;;;89.32;52.90;;;19.80;64.70;;;;;;4917733;28;91092;-38
2022/05/21 06:22:52;;;;;;;90.03;53.08;;;19.90;64.10;;;;;;4923030;28;91325;-37
2022/05/21 06:25:21;;;;;;;90.15;52.83;;;20.00;63.20;;;;;;4922729;28;90001;-38
2022/05/21 06:27:50;;;;;;;88.05;52.92;;;20.00;64.00;;;;;;4931880;28;89003;-37
2022/05/21 06:30:18;;;;;;;88.70;53.13;;;20.00;63.80;;;;;;4919430;28;90140;-37
2022/05/21 06:32:44;;;;;;;88.93;52.90;;;20.00;63.70;;;;;;4925749;28;90137;-37
2022/05/21 06:35:11;;;;;;;89.97;53.08;;;20.10;63.80;;;;;;4922239;28;90954;-37
2022/05/21 06:37:37;;;;;;;89.50;53.03;;;20.00;63.50;;;;;;4924649;28;90576;-36
2022/05/21 06:40:05;;;;;;;87.85;53.08;;;20.10;63.40;;;;;;4926811;28;89964;-37
2022/05/21 06:42:31;;;;;;;88.47;52.88;;;20.10;63.60;;;;;;4925710;28;92370;-41
2022/05/21 06:44:56;;;;;;;89.63;53.00;;;20.10;63.20;;;;;;4922860;28;90000;-36
2022/05/21 06:47:22;;;;;;;90.03;52.88;;;20.10;63.40;;;;;;4922896;28;89558;-37
2022/05/21 06:49:47;;;;;;;89.63;53.28;;;20.20;62.20;;;;;;4916895;28;91033;-38
2022/05/21 06:52:13;;;;;;;87.65;52.85;;;20.10;62.80;;;;;;4918349;28;89642;-38
2022/05/21 06:54:39;;;;;;;88.75;52.67;;;20.20;63.10;;;;;;4919492;28;89746;-39
2022/05/21 06:57:13;;;;;;;88.82;53.17;;;20.20;62.60;;;;;;4930363;28;89927;-39
2022/05/21 06:59:39;;;;;;;88.72;52.92;;;20.20;62.50;;;;;;4929420;28;91024;-37
2022/05/21 07:02:05;;;;;;;90.65;53.45;;;20.20;62.30;;;;;;4923606;28;89976;-41
2022/05/21 07:10:09;;;;;;;90.43;53.20;;;20.30;61.80;;;;;;4919979;28;92368;-39
2022/05/21 07:12:35;;;;;;;93.60;53.53;;;20.30;62.40;;;;;;4934499;28;89689;-40
2022/05/21 07:15:02;;;;;;;93.40;53.58;;;20.40;61.50;;;;;;4923135;28;90594;-38
2022/05/21 07:17:28;;;;;;;91.45;53.53;;;20.40;61.60;;;;;;4922546;28;89857;-39
2022/05/21 07:19:54;;;;;;;93.18;53.45;;;20.40;61.90;;;;;;4918735;28;90376;-38
2022/05/21 07:22:21;;;;;;;94.72;54.10;;;20.40;61.60;;;;;;4918214;28;90119;-39
2022/05/21 07:24:46;;;;;;;94.25;53.42;;;20.30;61.90;;;;;;4918032;28;91623;-37
2022/05/21 07:27:12;;;;;;;92.97;53.58;;;20.40;61.60;;;;;;4901976;28;91348;-39
2022/05/21 07:29:39;;;;;;;96.72;53.80;;;20.50;62.20;;;;;;4926430;28;92382;-39
2022/05/21 07:32:06;;;;;;;95.75;53.92;;;20.50;62.40;;;;;;4926056;28;89897;-40
2022/05/21 07:34:32;;;;;;;96.28;53.78;;;20.60;61.90;;;;;;4931723;28;89560;-39
2022/05/21 07:36:58;;;;;;;95.13;53.65;;;20.70;61.80;;;;;;4928799;28;91400;-39
2022/05/21 07:39:24;;;;;;;100.80;53.83;;;20.70;61.20;;;;;;4926137;28;90172;-38
2022/05/21 07:41:50;;;;;;;95.63;53.70;;;20.70;61.60;;;;;;4924849;28;90115;-40
2022/05/21 07:44:17;;;;;;;96.63;53.92;;;20.70;61.30;;;;;;4922378;28;90139;-38
2022/05/21 07:46:43;;;;;;;96.63;53.92;;;20.70;62.10;;;;;;4929865;28;90191;-38
2022/05/21 07:49:09;;;;;;;94.82;53.45;;;20.80;61.80;;;;;;4915339;28;91035;-39
2022/05/21 07:51:37;;;;;;;95.25;53.83;;;20.90;61.60;;;;;;4924121;28;90441;-39
2022/05/21 07:54:02;;;;;;;96.32;53.58;;;20.90;61.50;;;;;;4922176;28;90335;-41
2022/05/21 07:56:30;;;;;;;95.65;53.53;;;21.00;61.50;;;;;;4922916;28;89958;-39
2022/05/21 07:58:56;;;;;;;95.70;54.22;;;21.00;61.40;;;;;;4926055;28;91037;-39
2022/05/21 08:01:22;;;;;;;96.95;53.78;;;21.10;60.70;;;;;;4921907;28;92114;-39
2022/05/21 08:03:48;;;;;;;95.63;54.22;;;21.10;61.20;;;;;;4923510;28;91390;-39
2022/05/21 08:06:15;;;;;;;95.65;54.13;;;21.10;61.00;;;;;;4923845;28;90002;-39
2022/05/21 08:08:41;;;;;;;95.68;54.05;;;21.10;60.50;;;;;;4925909;28;90011;-38
2022/05/21 08:11:06;;;;;;;96.10;54.38;;;21.10;60.10;;;;;;4927090;28;91380;-38
2022/05/21 08:13:34;;;;;;;93.70;53.80;;;21.10;59.90;;;;;;4934044;28;92407;-42
2022/05/21 08:16:00;;;;;;;95.47;54.05;;;21.20;60.20;;;;;;4926408;28;90253;-39
2022/05/21 08:18:28;;;;;;;94.40;53.85;;;21.20;59.90;;;;;;4914672;28;94519;-41
2022/05/21 08:20:54;;;;;;;92.60;53.72;;;21.20;60.00;;;;;;4924773;28;93399;-38
2022/05/21 08:28:51;;;;;;;94.97;53.78;;;21.10;59.80;;;;;;4929582;28;89959;-39
2022/05/21 08:31:18;;;;;;;95.72;53.97;;;21.10;60.10;;;;;;4931302;28;90701;-38
2022/05/21 08:33:44;;;;;;;95.30;53.80;;;21.20;60.40;;;;;;4926510;28;90018;-39
2022/05/21 08:36:12;;;;;;;93.85;53.65;;;21.20;59.80;;;;;;4922732;28;95076;-39
2022/05/21 08:38:38;;;;;;;93.53;53.70;;;21.30;59.50;;;;;;4920197;28;90904;-38
2022/05/21 08:41:23;;;;;;;93.65;53.63;;;21.30;59.70;;;;;;4928050;28;89907;-40
2022/05/21 08:44:03;;;;;;;93.55;53.75;;;21.30;59.60;;;;;;4928946;28;90670;-38
2022/05/21 08:46:47;;;;;;;95.20;54.13;;;21.30;59.80;;;;;;4931417;28;90230;-40
2022/05/21 08:49:25;;;;;;;94.13;53.70;;;21.30;59.50;;;;;;4931145;28;91723;-38
2022/05/21 08:52:00;;;;;;;92.78;53.55;;;21.30;59.90;;;;;;4926612;28;89912;-40
2022/05/21 08:54:31;;;;;;;94.95;54.20;;;21.30;59.90;;;;;;4912270;28;89961;-40
2022/05/21 08:56:57;;;;;;;94.63;54.00;;;21.40;59.70;;;;;;4929773;28;89241;-40
2022/05/21 08:59:29;;;;;;;94.95;53.95;;;21.40;59.60;;;;;;4919301;28;91444;-40
2022/05/21 09:01:55;;;;;;;94.75;53.88;;;21.50;59.30;;;;;;4928543;28;89948;-38
2022/05/21 09:04:23;;;;;;;96.68;53.97;;;21.60;59.60;;;;;;4925390;28;92765;-39
2022/05/21 09:07:04;;;;;;;96.82;53.92;;;21.60;59.00;;;;;;4931057;28;90020;-39
2022/05/21 09:10:08;;;;;;;94.90;53.92;;;21.70;59.10;;;;;;4916752;28;91958;-39
2022/05/21 09:12:55;;;;;;;95.78;54.00;;;21.60;58.80;;;;;;4922819;28;92313;-39
2022/05/21 09:18:23;;;;;;;94.35;53.50;;;21.60;58.90;;;;;;4936221;28;94011;-38
2022/05/21 09:21:01;;;;;;;94.35;54.13;;;21.70;58.70;;;;;;4916184;28;91155;-39
2022/05/21 09:23:45;;;;;;;95.40;53.95;;;21.70;58.80;;;;;;4918612;28;90901;-38
2022/05/21 09:26:11;;;;;;;94.82;53.85;;;21.80;58.50;;;;;;4923375;28;92332;-40
2022/05/21 09:28:39;;;;;;;94.38;54.13;;;21.80;58.40;;;;;;4932530;28;90193;-39
2022/05/21 09:31:06;;;;;;;94.30;54.00;;;21.80;58.40;;;;;;4928657;28;92122;-41
2022/05/21 09:33:43;;;;;;;97.90;54.33;;;21.90;58.30;;;;;;4916381;28;90668;-38
2022/05/21 09:36:17;;;;;;;95.55;54.13;;;22.00;57.90;;;;;;4927949;28;90070;-41
2022/05/21 09:38:52;;;;;;;96.15;54.15;;;22.10;57.40;;;;;;4918997;28;91109;-40
2022/05/21 09:41:24;;;;;;;95.55;54.22;;;22.20;57.30;;;;;;4927888;28;90466;-43
2022/05/21 09:46:44;;;;;;;96.90;54.83;;;22.30;57.10;;;;;;4928777;28;89504;-40
2022/05/21 09:49:22;;;;;;;97.30;54.88;;;22.30;57.00;;;;;;4921870;28;89832;-40
2022/05/21 09:52:04;;;;;;;98.53;54.65;;;22.30;57.10;;;;;;4919521;28;91260;-38
2022/05/21 09:54:40;;;;;;;98.05;54.63;;;22.40;57.60;;;;;;4918625;28;91299;-39
2022/05/21 09:57:20;;;;;;;100.68;55.53;;;22.30;57.50;;;;;;4924865;28;91436;-39
2022/05/21 10:00:07;;;;;;;98.10;55.03;;;22.30;57.80;;;;;;4921819;28;91133;-40
2022/05/21 10:02:43;;;;;;;101.15;55.55;;;22.30;57.80;;;;;;4916929;28;90811;-38
2022/05/21 10:05:13;;;;;;;102.78;55.50;;;22.30;58.20;;;;;;4916321;28;90556;-38
2022/05/21 10:13:22;;;;;;;100.15;55.70;;;22.50;57.80;;;;;;4926870;28;89900;-39
2022/05/21 10:15:59;;;;;;;101.57;55.90;;;22.60;57.10;;;;;;4946893;28;79956;-37
2022/05/21 10:18:29;;;;;;;98.90;55.25;;;22.70;57.10;;;;;;4934231;28;77965;-37
2022/05/21 10:21:04;;;;;;;102.93;55.97;;;22.70;56.70;;;;;;4944342;28;76487;-38
2022/05/21 10:23:53;;;;;;;101.30;55.92;;;22.80;56.00;;;;;;4936133;28;80872;-37
2022/05/21 10:26:42;;;;;;;101.15;55.72;;;22.90;56.20;;;;;;4939314;28;76744;-38
2022/05/21 10:29:29;;;;;;;101.40;55.45;;;23.00;55.50;;;;;;4939751;28;75450;-38
2022/05/21 10:32:18;;;;;;;101.93;55.60;;;23.10;55.40;;;;;;4943299;28;77514;-40
2022/05/21 10:35:10;;;;;;;100.72;55.67;;;23.20;55.20;;;;;;4949598;28;78230;-37
2022/05/21 10:38:06;;;;;;;99.47;55.38;;;23.20;55.10;;;;;;4946458;28;73567;-37
2022/05/21 10:40:47;;;;;;;100.38;55.83;;;23.30;55.00;;;;;;4942471;28;76760;-38
2022/05/21 10:43:32;;;;;;;;;;;23.30;54.90;;;;;;4949747;28;76914;-38
2022/05/21 10:46:35;;;;;;;101.15;55.70;;;23.30;54.80;;;;;;4944375;28;78246;-38
2022/05/21 10:49:19;;;;;;;99.57;55.40;;;23.40;54.30;;;;;;4955032;28;77058;-37
2022/05/21 10:52:33;;;;;;;99.57;55.38;;;23.40;54.60;;;;;;4957127;28;80326;-37
2022/05/21 10:55:19;;;;;;;99.30;55.67;;;23.40;54.60;;;;;;4944063;28;79859;-38
2022/05/21 10:58:34;;;;;;;100.18;55.38;;;23.30;54.70;;;;;;4950066;28;77500;-37
2022/05/21 11:01:20;;;;;;;101.40;55.55;;;23.30;54.90;;;;;;4955003;28;77705;-38
2022/05/21 11:04:05;;;;;;;99.78;55.55;;;23.30;55.00;;;;;;4945284;28;75035;-38
2022/05/21 11:06:52;;;;;;;99.65;56.00;;;23.40;54.80;;;;;;4959598;28;76822;-37
2022/05/21 11:09:40;;;;;;;102.13;55.72;;;23.40;54.50;;;;;;4945140;28;81343;-37
2022/05/21 11:12:17;;;;;;;100.55;55.60;;;23.40;54.30;;;;;;4956745;28;77956;-38
2022/05/21 11:15:05;;;;;;;101.25;55.90;;;23.50;54.30;;;;;;4950228;28;80995;-38
2022/05/21 11:17:40;;;;;;;100.45;55.72;;;23.50;54.30;;;;;;4951063;28;76118;-37
2022/05/21 11:20:40;;;;;;;101.35;55.90;;;23.60;54.00;;;;;;4930972;28;81541;-39
2022/05/21 11:23:23;;;;;;;100.57;55.75;;;23.60;53.90;;;;;;4947148;28;77692;-38
2022/05/21 11:25:56;;;;;;;100.25;55.67;;;23.70;53.80;;;;;;4941627;28;75986;-36
2022/05/21 11:28:32;;;;;;;101.88;55.70;;;23.70;53.70;;;;;;4941077;28;77188;-38
2022/05/21 11:31:06;;;;;;;100.95;55.60;;;23.60;53.80;;;;;;4953374;28;74234;-37
2022/05/21 11:39:11;;;;;;;99.78;55.63;;;23.60;53.90;;;;;;4946852;28;73746;-37
2022/05/21 11:42:07;;;;;;;98.65;55.58;;;23.60;53.90;;;;;;4952391;28;77672;-38
2022/05/21 11:44:55;;;;;;;99.85;55.72;;;23.60;54.00;;;;;;4953891;28;79349;-40
2022/05/21 11:47:21;;;;;;;97.93;55.33;;;23.60;54.10;;;;;;4952738;28;79032;-38
2022/05/21 11:50:01;;;;;;;100.00;55.50;;;23.60;54.20;;;;;;4944151;28;76348;-36
2022/05/21 11:52:27;;;;;;;99.25;55.50;;;23.50;54.30;;;;;;4954299;28;78913;-38
2022/05/21 11:55:09;;;;;;;98.68;55.53;;;23.50;54.40;;;;;;4942011;28;76090;-38
2022/05/21 11:57:44;;;;;;;99.20;55.53;;;23.50;54.40;;;;;;4943697;28;75709;-38
2022/05/21 12:00:32;;;;;;;99.57;55.63;;;23.50;54.40;;;;;;4949852;28;76652;-38
2022/05/21 12:02:58;;;;;;;100.65;55.70;;;23.50;54.30;;;;;;4946525;28;72920;-38
2022/05/21 12:05:33;;;;;;;98.55;55.45;;;23.60;54.30;;;;;;4948291;28;84730;-38
2022/05/21 12:08:34;;;;;;;100.35;55.45;;;23.60;54.30;;;;;;4954776;28;76597;-39
2022/05/21 12:11:07;;;;;;;99.47;55.13;;;23.60;54.20;;;;;;4946036;28;81556;-37
2022/05/21 12:13:33;;;;;;;99.45;55.60;;;23.60;54.20;;;;;;4950249;28;78279;-37
2022/05/21 12:16:21;;;;;;;97.18;55.13;;;23.60;54.10;;;;;;4957351;28;79512;-37
2022/05/21 12:18:55;;;;;;;97.80;55.45;;;23.60;54.10;;;;;;4948998;28;83940;-39
2022/05/21 12:21:30;;;;;;;99.65;55.50;;;23.60;54.00;;;;;;4936410;28;77234;-37
2022/05/21 12:23:55;;;;;;;98.15;55.65;;;23.70;54.00;;;;;;4943330;28;76709;-37
2022/05/21 12:26:24;;;;;;;99.28;55.67;;;23.70;53.80;;;;;;4950460;28;77688;-38
2022/05/21 12:29:09;;;;;;;98.07;55.65;;;23.70;53.90;;;;;;4953459;28;76044;-37
2022/05/21 12:31:47;;;;;;;97.93;55.45;;;23.70;54.00;;;;;;4955997;28;77308;-38
2022/05/21 12:34:12;;;;;;;102.53;55.63;;;23.70;54.00;;;;;;4949786;28;75043;-37
2022/05/21 12:37:06;;;;;;;98.38;55.58;;;23.70;53.90;;;;;;4949502;28;75472;-39
2022/05/21 12:40:07;;;;;;;99.03;55.83;;;23.70;53.90;;;;;;4949834;28;80439;-41
2022/05/21 12:42:51;;;;;;;97.82;55.28;;;23.80;53.80;;;;;;4958630;28;75714;-39
2022/05/21 12:45:33;;;;;;;98.53;55.78;;;23.80;53.80;;;;;;4942595;28;76485;-38
2022/05/21 12:48:10;;;;;;;98.30;55.88;;;23.80;53.60;;;;;;4956920;28;78600;-38
2022/05/21 12:50:55;;;;;;;100.18;55.67;;;23.90;53.60;;;;;;4941727;28;76848;-38
2022/05/21 12:53:39;;;;;;;98.57;55.75;;;23.90;53.40;;;;;;4940611;28;78273;-38
2022/05/21 12:56:29;;;;;;;98.95;55.40;;;23.90;53.40;;;;;;4940401;28;79861;-41
2022/05/21 12:59:15;;;;;;;97.22;54.95;;;23.80;54.10;;;;;;4949270;28;73144;-37
2022/05/21 13:01:55;;;;;;;97.65;55.33;;;23.80;53.80;;;;;;4950481;28;75953;-38
2022/05/21 13:04:38;;;;;;;98.87;55.77;;;23.80;53.70;;;;;;4951241;28;77663;-37
2022/05/21 13:07:34;;;;;;;96.78;55.42;;;23.90;53.50;;;;;;4947624;28;77811;-39
2022/05/21 13:10:28;;;;;;;96.75;55.10;;;23.90;53.50;;;;;;4942504;28;78706;-38
2022/05/21 13:13:11;;;;;;;95.97;55.13;;;23.90;53.60;;;;;;4953198;28;75670;-39
2022/05/21 13:15:55;;;;;;;96.47;55.40;;;23.80;53.80;;;;;;4945017;28;80115;-37
2022/05/21 13:18:58;;;;;;;96.05;55.17;;;23.80;53.90;;;;;;4944984;28;80352;-38
2022/05/21 13:21:26;;;;;;;94.97;54.83;;;23.80;53.80;;;;;;4945905;28;74320;-38
2022/05/21 13:24:19;;;;;;;96.80;55.45;;;23.80;53.80;;;;;;4940872;28;76148;-41
2022/05/21 13:27:08;;;;;;;95.80;55.28;;;23.90;53.70;;;;;;4943736;28;80461;-39
2022/05/21 13:29:34;;;;;;;97.45;55.17;;;23.90;53.60;;;;;;4947145;28;76173;-38